KELY/ELY METAR and TAF weather

Enter ICAO airport designator
Station Type Date Time Source
KELY METAR 2020/07/15 03:53 UTC NOAA

KELY 150353Z AUTO 35009KT 10SM CLR 26/M02 A3009 RMK AO2 SLP076 T02561022


Station Type Date Time Source
KELY Decoded METAR 2020/07/15 03:53 UTC NOAA

ELY AIRPORT (YELLAND FIELD), NV, United States (KELY) 39-18N 114-51W 1906M
Jul 14, 2020 - 11:53 PM EDT / 2020.07.15 0353 UTC
Wind: from the N (350 degrees) at 10 MPH (9 KT):0
Visibility: 10 mile(s):0
Sky conditions: clear
Temperature: 78.1 F (25.6 C)
Dew Point: 28.0 F (-2.2 C)
Relative Humidity: 15%
Pressure (altimeter): 30.09 in. Hg (1018 hPa)
ob: KELY 150353Z AUTO 35009KT 10SM CLR 26/M02 A3009 RMK AO2 SLP076 T02561022
cycle: 4

Station Type Date Time Source
KELY TAF 2020/07/14 23:42 UTC NOAA

TAF
AMD KELY 142239Z 1423/1518 31007KT P6SM SCT130
FM150200 32013G20KT P6SM FEW130
FM150400 36010KT P6SM FEW130
FM150700 17008KT P6SM SKC

Example: see airport list